Time;durP1;ratioP1;P1;durP2;ratioP2;P2;SDS_P1;SDS_P2;PMS_P1;PMS_P2;Temp;Humidity;BMP_temperature;BMP_pressure;BME280_temperature;BME280_humidity;BME280_pressure;Samples;Min_cycle;Max_cycle;Signal;HPM_P1;HPM_P2
2022/03/31 04:01:01;;;;;;;19.33;9.97;;;1.10;96.30;;;;;;5357558;23;20382;-77
2022/03/31 04:03:27;;;;;;;17.67;11.20;;;1.00;96.30;;;;;;4974090;28;20441;-76
2022/03/31 04:05:54;;;;;;;13.60;8.57;;;1.10;96.30;;;;;;4974714;28;20773;-77
2022/03/31 04:08:21;;;;;;;16.87;9.87;;;1.00;96.30;;;;;;4975498;28;20413;-76
2022/03/31 04:10:46;;;;;;;11.30;9.87;;;1.00;96.30;;;;;;4975823;28;20476;-76
2022/03/31 04:13:12;;;;;;;14.30;10.63;;;1.00;96.30;;;;;;4975924;28;20901;-76
2022/03/31 04:15:37;;;;;;;21.63;12.57;;;1.00;96.30;;;;;;4979384;28;20174;-75
2022/03/31 04:18:05;;;;;;;15.60;10.67;;;1.00;96.30;;;;;;4985038;28;20202;-76
2022/03/31 05:12:12;;;;;;;27.63;13.50;;;0.90;96.30;;;;;;4953750;29;20466;-78
2022/03/31 05:14:38;;;;;;;22.03;9.80;;;0.80;96.30;;;;;;4938087;29;20502;-79
2022/03/31 05:17:05;;;;;;;18.30;11.57;;;0.80;96.30;;;;;;4926485;29;20921;-79
2022/03/31 05:19:30;;;;;;;29.17;13.37;;;0.80;96.30;;;;;;4943485;29;20578;-79
2022/03/31 05:21:56;;;;;;;29.27;14.03;;;0.80;96.30;;;;;;4956294;28;20422;-79
2022/03/31 05:24:21;;;;;;;34.37;13.33;;;0.80;96.30;;;;;;4975096;28;20181;-79
2022/03/31 05:26:48;;;;;;;28.63;13.43;;;0.80;96.30;;;;;;4974732;28;20170;-79
2022/03/31 05:29:13;;;;;;;31.90;13.00;;;0.90;96.30;;;;;;4952626;28;20207;-78
2022/03/31 05:31:39;;;;;;;27.83;12.30;;;0.90;96.30;;;;;;4954950;28;20823;-78
2022/03/31 05:34:05;;;;;;;13.07;9.43;;;0.80;96.30;;;;;;4928713;29;20590;-78
2022/03/31 05:36:31;;;;;;;23.33;12.93;;;0.80;96.30;;;;;;4944131;29;20426;-78
2022/03/31 05:38:56;;;;;;;15.70;10.17;;;0.80;96.30;;;;;;4951001;28;20219;-79
2022/03/31 05:41:24;;;;;;;15.10;11.50;;;0.80;96.30;;;;;;4955456;29;20226;-78
2022/03/31 05:43:49;;;;;;;22.50;11.03;;;0.80;96.30;;;;;;4948730;28;20230;-77
2022/03/31 05:46:15;;;;;;;19.53;12.80;;;0.80;96.30;;;;;;4974282;28;20453;-78
2022/03/31 05:48:40;;;;;;;16.30;13.00;;;0.80;96.30;;;;;;4973827;28;20201;-77
2022/03/31 05:51:07;;;;;;;13.50;11.60;;;0.80;96.30;;;;;;4961096;28;20201;-78
2022/03/31 05:53:33;;;;;;;19.00;12.47;;;0.80;96.30;;;;;;4936629;29;20187;-77
2022/03/31 05:55:58;;;;;;;17.50;13.93;;;0.90;96.30;;;;;;4933550;29;20427;-79
2022/03/31 05:58:24;;;;;;;14.40;9.70;;;0.90;96.30;;;;;;4919399;29;20490;-78
2022/03/31 06:00:52;;;;;;;14.03;10.30;;;0.90;96.30;;;;;;4954899;29;20178;-79
2022/03/31 06:03:21;;;;;;;13.57;10.13;;;0.80;96.30;;;;;;4949718;29;20264;-78
2022/03/31 06:05:46;;;;;;;12.73;8.40;;;0.80;96.30;;;;;;4938902;29;20802;-79
2022/03/31 06:08:12;;;;;;;12.50;8.60;;;0.80;96.30;;;;;;4937786;29;20441;-79
2022/03/31 06:10:37;;;;;;;20.20;12.10;;;0.80;96.30;;;;;;4937323;29;20194;-79
2022/03/31 06:13:03;;;;;;;17.10;11.40;;;0.80;96.30;;;;;;4938090;29;20188;-78
2022/03/31 06:15:29;;;;;;;19.43;12.63;;;0.70;96.30;;;;;;4951543;29;20190;-79
2022/03/31 06:17:55;;;;;;;15.73;11.60;;;0.80;96.30;;;;;;4937574;29;20589;-80
2022/03/31 06:20:21;;;;;;;13.00;10.50;;;0.80;96.30;;;;;;4950178;28;20455;-79
2022/03/31 06:22:46;;;;;;;21.03;8.73;;;0.70;96.30;;;;;;4966959;28;20929;-77
2022/03/31 06:25:14;;;;;;;13.20;10.47;;;0.70;96.30;;;;;;4968008;28;20175;-79
2022/03/31 06:27:40;;;;;;;15.93;10.10;;;0.70;96.30;;;;;;4931539;28;20174;-78
2022/03/31 06:30:06;;;;;;;17.63;11.20;;;0.70;96.30;;;;;;4956257;29;20446;-79
2022/03/31 06:32:32;;;;;;;22.33;8.50;;;0.80;96.30;;;;;;4936518;28;20435;-79
2022/03/31 06:34:59;;;;;;;16.60;10.57;;;0.70;96.30;;;;;;4942270;29;21029;-78
2022/03/31 06:37:25;;;;;;;15.67;10.60;;;0.60;96.30;;;;;;4937724;28;20183;-79
2022/03/31 06:39:50;;;;;;;13.10;9.03;;;0.60;96.30;;;;;;4937333;29;20442;-80
2022/03/31 06:42:16;;;;;;;22.50;11.90;;;0.60;96.30;;;;;;4955642;29;20518;-80
2022/03/31 06:44:42;;;;;;;15.13;10.40;;;0.60;96.30;;;;;;4953063;28;20183;-79
2022/03/31 06:47:07;;;;;;;17.20;11.97;;;0.60;96.30;;;;;;4939482;29;20214;-78
2022/03/31 06:49:34;;;;;;;16.50;12.40;;;0.70;96.30;;;;;;4955447;29;20218;-79
2022/03/31 06:52:00;;;;;;;18.50;11.97;;;0.70;96.30;;;;;;4962824;28;20182;-80
2022/03/31 06:54:26;;;;;;;15.00;9.40;;;0.70;96.30;;;;;;4959028;28;20433;-80
2022/03/31 06:56:52;;;;;;;11.67;10.17;;;0.70;96.30;;;;;;4943214;29;20250;-80
2022/03/31 06:59:20;;;;;;;21.07;12.07;;;0.70;96.30;;;;;;4952910;28;20494;-80
2022/03/31 07:01:47;;;;;;;18.87;11.70;;;0.70;96.30;;;;;;4928700;29;20581;-80
2022/03/31 07:04:13;;;;;;;15.00;10.73;;;0.70;96.30;;;;;;4920600;29;20466;-80
2022/03/31 07:06:39;;;;;;;18.27;13.73;;;0.70;96.30;;;;;;4949249;28;20460;-79
2022/03/31 07:09:06;;;;;;;17.27;11.97;;;0.70;96.30;;;;;;4946584;29;20237;-80
2022/03/31 07:11:32;;;;;;;15.63;13.23;;;0.80;96.30;;;;;;4946380;29;20617;-80
2022/03/31 07:14:01;;;;;;;14.87;11.17;;;0.80;96.30;;;;;;4933696;29;20437;-80
2022/03/31 07:16:30;;;;;;;17.90;13.33;;;0.80;96.30;;;;;;4954041;29;20418;-81
2022/03/31 07:18:56;;;;;;;12.37;9.30;;;0.90;96.30;;;;;;4958113;28;20527;-79
2022/03/31 07:21:23;;;;;;;10.07;7.60;;;0.80;96.30;;;;;;4972840;28;20921;-79
2022/03/31 07:23:50;;;;;;;12.30;10.63;;;0.80;96.30;;;;;;4974010;28;20174;-79
2022/03/31 07:26:16;;;;;;;16.93;11.67;;;0.90;96.30;;;;;;4956255;28;20425;-79
2022/03/31 07:28:41;;;;;;;17.13;12.10;;;1.00;96.30;;;;;;4952290;28;20465;-79
2022/03/31 07:31:07;;;;;;;17.20;11.60;;;1.00;96.30;;;;;;4956971;28;20273;-80
2022/03/31 07:33:33;;;;;;;24.87;11.30;;;1.10;96.30;;;;;;4957429;28;20281;-81
2022/03/31 07:35:58;;;;;;;16.50;12.60;;;1.10;96.30;;;;;;4944421;29;20630;-80
2022/03/31 07:38:24;;;;;;;17.50;13.00;;;1.00;96.30;;;;;;4945390;28;20322;-79
2022/03/31 07:40:50;;;;;;;22.57;13.33;;;1.10;96.30;;;;;;4942695;29;20175;-80
2022/03/31 07:43:19;;;;;;;25.33;14.93;;;1.10;96.30;;;;;;4935668;29;20239;-78
2022/03/31 07:45:45;;;;;;;19.03;14.13;;;1.20;96.30;;;;;;4937314;29;20833;-79
2022/03/31 07:52:09;;;;;;;17.73;12.20;;;1.20;96.30;;;;;;4969421;28;20453;-78
2022/03/31 10:29:08;;;;;;;29.03;19.30;;;2.30;96.30;;;;;;5384180;23;20478;-76
2022/03/31 11:23:15;;;;;;;25.40;17.33;;;1.80;96.30;;;;;;4990944;28;20480;-74
2022/03/31 11:25:43;;;;;;;21.10;15.73;;;1.90;96.30;;;;;;4992323;28;20425;-74
2022/03/31 11:28:13;;;;;;;24.37;16.63;;;1.90;96.30;;;;;;4991507;28;20210;-75
2022/03/31 11:30:40;;;;;;;17.80;11.60;;;1.80;96.30;;;;;;4995150;28;20401;-74
2022/03/31 11:33:10;;;;;;;25.73;15.67;;;1.80;96.30;;;;;;4995768;28;20411;-75
2022/03/31 11:35:36;;;;;;;25.97;18.00;;;1.90;96.30;;;;;;4996062;28;20416;-76
2022/03/31 11:38:04;;;;;;;19.80;14.00;;;1.90;96.30;;;;;;4995897;28;20459;-74
2022/03/31 11:40:36;;;;;;;27.07;16.30;;;2.00;96.30;;;;;;4978617;28;20948;-77
2022/03/31 11:43:04;;;;;;;24.30;18.90;;;2.00;96.30;;;;;;4999165;28;20415;-78
2022/03/31 11:45:34;;;;;;;26.93;19.43;;;2.00;96.30;;;;;;4996638;28;20767;-77
2022/03/31 11:48:06;;;;;;;26.53;17.23;;;2.00;96.30;;;;;;4978343;28;20449;-76
2022/03/31 11:50:34;;;;;;;30.00;19.90;;;2.10;96.30;;;;;;4995759;28;20423;-74
2022/03/31 11:53:00;;;;;;;25.37;18.60;;;2.10;96.30;;;;;;4995701;28;20423;-74
2022/03/31 11:55:27;;;;;;;28.13;17.27;;;2.10;96.30;;;;;;4995774;28;20409;-74
2022/03/31 11:57:57;;;;;;;17.20;13.27;;;2.00;96.30;;;;;;4995541;28;20481;-75
2022/03/31 12:00:29;;;;;;;19.53;13.57;;;1.90;96.30;;;;;;4995394;28;20969;-75
2022/03/31 12:03:07;;;;;;;21.57;16.17;;;1.90;96.30;;;;;;4995505;28;20435;-74
2022/03/31 12:05:32;;;;;;;19.90;14.90;;;2.00;96.30;;;;;;4978031;28;20766;-75
2022/03/31 12:08:00;;;;;;;25.20;19.37;;;2.00;96.30;;;;;;4995298;28;20439;-74
2022/03/31 12:10:29;;;;;;;27.20;18.00;;;1.90;96.30;;;;;;4995502;28;20170;-75
2022/03/31 12:12:58;;;;;;;18.97;14.37;;;2.00;96.30;;;;;;4975876;28;20425;-76
2022/03/31 12:15:29;;;;;;;31.63;20.37;;;2.10;96.30;;;;;;4975902;28;20409;-74
2022/03/31 12:18:04;;;;;;;30.03;21.13;;;2.00;96.30;;;;;;4975457;28;20457;-75
2022/03/31 12:20:31;;;;;;;25.33;18.50;;;1.90;96.30;;;;;;4958567;28;20479;-75
2022/03/31 12:22:57;;;;;;;24.80;17.47;;;1.90;96.30;;;;;;4990897;28;20816;-74
2022/03/31 12:25:27;;;;;;;25.70;16.10;;;1.90;96.30;;;;;;4999078;28;20425;-74
2022/03/31 12:27:52;;;;;;;29.30;16.50;;;1.80;96.30;;;;;;5014609;28;20439;-74
2022/03/31 12:30:18;;;;;;;23.87;17.10;;;1.90;96.30;;;;;;5014990;28;20419;-74
2022/03/31 12:32:48;;;;;;;22.90;16.63;;;1.90;96.30;;;;;;4981990;28;20278;-74
2022/03/31 12:35:13;;;;;;;18.27;12.70;;;2.00;96.30;;;;;;4995114;28;20180;-74
2022/03/31 12:37:41;;;;;;;20.70;14.80;;;1.90;96.30;;;;;;4978027;28;20527;-74
2022/03/31 12:40:10;;;;;;;23.90;13.73;;;2.00;96.30;;;;;;4996138;28;20162;-74
2022/03/31 12:42:38;;;;;;;27.60;18.63;;;1.90;96.30;;;;;;4975585;28;20512;-76
2022/03/31 12:45:14;;;;;;;26.83;18.90;;;1.90;96.30;;;;;;4976602;28;20944;-75
2022/03/31 12:47:42;;;;;;;22.87;17.67;;;2.00;96.30;;;;;;4959371;28;20460;-74
2022/03/31 12:50:19;;;;;;;27.20;16.90;;;2.00;96.30;;;;;;4976532;28;20418;-74
2022/03/31 12:52:55;;;;;;;16.50;12.60;;;1.90;96.30;;;;;;4959364;28;20449;-75
2022/03/31 12:55:32;;;;;;;20.10;12.60;;;1.80;96.30;;;;;;4957930;28;20787;-77
2022/03/31 12:57:59;;;;;;;20.17;14.47;;;1.80;96.30;;;;;;4994971;28;20479;-76
2022/03/31 13:00:25;;;;;;;28.87;20.77;;;1.90;96.30;;;;;;4978467;28;20421;-75
2022/03/31 13:02:52;;;;;;;25.03;17.20;;;2.00;96.30;;;;;;4996053;28;20418;-76
2022/03/31 13:05:23;;;;;;;19.07;12.30;;;2.00;96.30;;;;;;4979098;28;20783;-75
2022/03/31 13:07:53;;;;;;;20.13;11.27;;;1.80;96.30;;;;;;4979377;28;20436;-74
2022/03/31 13:10:20;;;;;;;29.77;19.60;;;1.80;96.30;;;;;;5018392;28;20413;-78
2022/03/31 13:12:46;;;;;;;28.20;20.00;;;1.90;96.30;;;;;;5016841;28;20429;-82
2022/03/31 13:15:13;;;;;;;36.50;21.03;;;2.00;96.30;;;;;;4996766;28;20458;-76
2022/03/31 13:17:42;;;;;;;33.93;16.47;;;2.00;96.30;;;;;;4992566;28;20417;-74
2022/03/31 13:20:10;;;;;;;29.23;19.80;;;2.00;96.30;;;;;;4963601;28;20496;-75
2022/03/31 13:22:36;;;;;;;26.70;15.63;;;2.00;96.30;;;;;;4996058;28;20513;-74
2022/03/31 13:25:03;;;;;;;29.33;19.60;;;1.90;96.30;;;;;;5000216;28;20926;-74
2022/03/31 16:17:59;;;;;;;13.50;10.97;;;0.50;96.30;;;;;;5964001;23;20434;-73
2022/03/31 16:20:25;;;;;;;19.17;14.13;;;0.40;96.30;;;;;;4953288;29;20431;-73
2022/03/31 16:22:51;;;;;;;22.90;13.27;;;0.40;96.30;;;;;;4958265;28;20746;-73
2022/03/31 16:25:16;;;;;;;19.60;11.63;;;0.40;96.30;;;;;;4959999;29;20191;-73
2022/03/31 16:27:42;;;;;;;19.53;14.33;;;0.40;96.30;;;;;;4957814;29;20730;-74
2022/03/31 16:30:08;;;;;;;33.53;15.00;;;0.30;96.30;;;;;;4943919;29;20182;-73
2022/03/31 16:32:34;;;;;;;13.57;10.77;;;0.40;96.30;;;;;;4956367;29;20258;-73
2022/03/31 16:34:59;;;;;;;17.40;13.13;;;0.30;96.30;;;;;;4960174;29;20438;-72
2022/03/31 16:37:25;;;;;;;21.23;14.17;;;0.30;96.30;;;;;;4954777;29;20186;-73
2022/03/31 16:42:26;;;;;;;20.87;16.07;;;0.40;96.30;;;;;;5105100;23;20229;-72
2022/03/31 16:44:52;;;;;;;20.13;14.50;;;0.30;96.30;;;;;;5006571;28;20780;-72
2022/03/31 16:47:17;;;;;;;24.37;15.80;;;0.30;96.30;;;;;;4992684;28;20223;-72
2022/03/31 16:49:46;;;;;;;19.83;13.40;;;0.30;96.30;;;;;;5022024;23;20492;-73
2022/03/31 16:52:12;;;;;;;18.13;13.37;;;0.40;96.30;;;;;;4994583;28;20210;-73
2022/03/31 16:54:41;;;;;;;20.30;15.20;;;0.30;96.30;;;;;;4998559;28;20423;-73
2022/03/31 16:57:06;;;;;;;16.53;12.60;;;0.40;96.30;;;;;;5001601;28;20185;-73
2022/03/31 17:02:08;;;;;;;20.07;14.80;;;0.30;96.30;;;;;;5009768;23;20284;-72
2022/03/31 17:04:37;;;;;;;20.60;14.27;;;0.30;96.30;;;;;;4973442;28;20413;-75
2022/03/31 17:07:03;;;;;;;20.40;13.47;;;0.30;96.30;;;;;;4966514;28;21034;-76
2022/03/31 17:09:32;;;;;;;19.97;14.87;;;0.30;96.30;;;;;;4981145;28;20774;-75
2022/03/31 17:12:03;;;;;;;21.50;11.57;;;0.30;96.30;;;;;;4974688;28;20412;-75
2022/03/31 17:14:29;;;;;;;25.70;16.37;;;0.40;96.30;;;;;;4974359;28;20774;-75
2022/03/31 17:16:54;;;;;;;17.67;12.97;;;0.30;96.30;;;;;;4984653;28;20508;-75
2022/03/31 17:19:20;;;;;;;15.43;12.00;;;0.30;96.30;;;;;;4972503;28;20214;-75
2022/03/31 17:21:46;;;;;;;19.03;13.17;;;0.30;96.30;;;;;;4973364;28;20219;-76
2022/03/31 17:24:12;;;;;;;18.43;13.67;;;0.40;96.30;;;;;;4973363;28;20178;-75
2022/03/31 17:26:38;;;;;;;18.20;12.90;;;0.30;96.30;;;;;;4972777;28;20464;-75
2022/03/31 17:29:03;;;;;;;17.00;11.40;;;0.30;96.30;;;;;;4973597;28;20194;-76
2022/03/31 17:31:29;;;;;;;22.33;14.63;;;0.30;96.30;;;;;;4973114;28;20186;-76
2022/03/31 17:33:55;;;;;;;16.87;14.97;;;0.30;96.30;;;;;;4977683;28;20177;-76
2022/03/31 17:36:22;;;;;;;16.70;14.13;;;0.30;96.30;;;;;;4992243;28;20174;-76
2022/03/31 17:38:48;;;;;;;21.27;14.47;;;0.30;96.30;;;;;;4991323;28;20220;-77
2022/03/31 17:41:14;;;;;;;24.07;15.63;;;0.30;96.30;;;;;;4987222;28;20866;-75
2022/03/31 17:43:40;;;;;;;18.80;13.97;;;0.30;96.30;;;;;;4992810;28;20764;-75
2022/03/31 17:46:06;;;;;;;14.47;12.33;;;0.30;96.30;;;;;;4992161;28;20539;-76
2022/03/31 17:48:31;;;;;;;17.60;14.40;;;0.30;96.30;;;;;;4992847;28;20247;-74
2022/03/31 17:50:59;;;;;;;23.40;16.73;;;0.30;96.30;;;;;;4993020;28;20182;-73
2022/03/31 17:53:24;;;;;;;21.03;15.30;;;0.30;96.30;;;;;;4993534;28;20178;-74
2022/03/31 17:55:50;;;;;;;22.90;16.60;;;0.30;96.30;;;;;;4993185;28;20411;-74
2022/03/31 17:58:15;;;;;;;24.97;17.20;;;0.30;96.30;;;;;;4992734;28;20545;-74
2022/03/31 18:00:44;;;;;;;28.27;16.90;;;0.30;96.30;;;;;;4990087;28;20908;-74
2022/03/31 18:03:13;;;;;;;23.27;17.10;;;0.30;96.30;;;;;;4993274;28;20206;-74
2022/03/31 18:05:39;;;;;;;20.53;16.33;;;0.30;96.30;;;;;;4991914;28;20451;-71
2022/03/31 18:08:05;;;;;;;23.43;16.67;;;0.30;96.30;;;;;;4992353;28;20472;-71
2022/03/31 18:10:31;;;;;;;21.83;16.67;;;0.30;96.30;;;;;;4992317;28;20456;-71
2022/03/31 18:12:57;;;;;;;21.20;15.00;;;0.30;96.30;;;;;;4993150;28;20235;-71
2022/03/31 18:15:24;;;;;;;21.50;16.10;;;0.40;96.30;;;;;;4993008;28;20176;-72
2022/03/31 18:17:51;;;;;;;22.50;15.10;;;0.40;96.30;;;;;;4992389;28;20511;-71
2022/03/31 18:20:17;;;;;;;20.50;16.57;;;0.50;96.30;;;;;;4992920;28;20405;-72
2022/03/31 18:22:45;;;;;;;21.27;16.53;;;0.40;96.30;;;;;;4990069;28;20924;-72
2022/03/31 18:25:14;;;;;;;17.63;12.77;;;0.40;96.30;;;;;;4992099;28;20409;-72
2022/03/31 18:27:41;;;;;;;22.00;17.20;;;0.40;96.30;;;;;;4992563;28;20555;-73
2022/03/31 18:35:41;;;;;;;26.17;17.70;;;0.40;96.30;;;;;;4992309;28;20435;-71
2022/03/31 18:38:08;;;;;;;23.10;15.50;;;0.40;96.30;;;;;;4991060;28;20457;-72
2022/03/31 18:40:33;;;;;;;20.00;16.00;;;0.40;96.30;;;;;;4991961;28;20205;-72
2022/03/31 18:42:59;;;;;;;18.37;14.90;;;0.40;96.30;;;;;;4992711;28;20428;-71
2022/03/31 18:45:25;;;;;;;15.77;12.90;;;0.40;96.30;;;;;;4991589;28;20224;-71
2022/03/31 18:47:52;;;;;;;18.07;12.17;;;0.40;96.30;;;;;;4992424;28;20479;-72
2022/03/31 18:50:19;;;;;;;19.63;16.20;;;0.50;96.30;;;;;;4990966;28;20173;-71
2022/03/31 18:52:46;;;;;;;21.10;16.10;;;0.40;96.30;;;;;;4990737;28;20920;-71
2022/03/31 18:55:12;;;;;;;16.30;13.83;;;0.40;96.30;;;;;;4991284;28;20556;-71
2022/03/31 18:57:37;;;;;;;22.00;16.00;;;0.40;96.30;;;;;;4992014;28;20424;-72
2022/03/31 19:00:07;;;;;;;19.67;15.47;;;0.40;96.30;;;;;;4992565;28;20464;-72
2022/03/31 19:02:34;;;;;;;21.87;16.40;;;0.50;96.30;;;;;;4990488;28;20553;-71
2022/03/31 19:05:00;;;;;;;22.33;15.17;;;0.50;96.30;;;;;;4990563;28;20408;-71
2022/03/31 19:07:26;;;;;;;22.40;16.63;;;0.50;96.30;;;;;;4991961;28;20409;-72
2022/03/31 19:09:52;;;;;;;19.43;13.67;;;0.50;96.30;;;;;;4992011;28;20797;-70
2022/03/31 19:12:18;;;;;;;21.30;15.90;;;0.40;96.30;;;;;;4992176;28;20232;-70
2022/03/31 19:14:44;;;;;;;20.30;14.60;;;0.50;96.30;;;;;;4992498;28;20814;-71
2022/03/31 19:17:09;;;;;;;22.90;16.10;;;0.50;96.30;;;;;;4992542;28;20270;-72
2022/03/31 19:19:35;;;;;;;21.30;16.30;;;0.50;96.30;;;;;;4992558;28;20703;-70
2022/03/31 19:22:01;;;;;;;19.90;15.60;;;0.50;96.30;;;;;;4997162;28;20178;-70
2022/03/31 19:24:27;;;;;;;20.57;16.37;;;0.50;96.30;;;;;;4996048;28;20169;-70
2022/03/31 19:26:53;;;;;;;18.27;16.20;;;0.50;96.30;;;;;;4993461;28;20219;-70
2022/03/31 19:29:19;;;;;;;16.67;14.87;;;0.60;96.30;;;;;;4993666;28;20193;-71
2022/03/31 19:31:47;;;;;;;18.30;15.13;;;0.60;96.30;;;;;;4994064;28;20670;-71
2022/03/31 19:34:13;;;;;;;17.10;14.40;;;0.60;96.30;;;;;;5004272;28;20423;-72
2022/03/31 19:36:39;;;;;;;16.70;10.30;;;0.60;96.30;;;;;;4994928;28;20920;-74
2022/03/31 19:39:06;;;;;;;20.53;14.40;;;0.60;96.30;;;;;;4992571;28;20510;-75
2022/03/31 19:41:32;;;;;;;14.00;10.00;;;0.70;96.30;;;;;;4991138;28;20178;-74
2022/03/31 19:43:58;;;;;;;21.70;15.13;;;0.70;96.30;;;;;;4992499;28;20449;-73
2022/03/31 19:46:25;;;;;;;17.17;14.87;;;0.70;96.30;;;;;;4991114;28;20441;-73
2022/03/31 19:48:51;;;;;;;16.80;14.90;;;0.70;96.30;;;;;;4992182;28;20198;-73
2022/03/31 19:51:18;;;;;;;19.90;15.40;;;0.70;96.30;;;;;;4994533;28;20463;-75
2022/03/31 19:53:45;;;;;;;19.07;12.57;;;0.70;96.30;;;;;;4994392;28;20424;-73
2022/03/31 19:56:12;;;;;;;16.10;10.10;;;0.70;96.30;;;;;;4995556;28;20932;-72
2022/03/31 19:58:38;;;;;;;27.20;16.13;;;0.70;96.30;;;;;;4993968;28;21038;-74
2022/03/31 20:01:06;;;;;;;17.37;14.30;;;0.70;96.30;;;;;;4995462;28;20935;-74
2022/03/31 20:03:36;;;;;;;21.90;15.50;;;0.70;96.30;;;;;;4995078;28;20503;-70
2022/03/31 20:06:02;;;;;;;20.77;16.93;;;0.80;96.30;;;;;;4994002;28;20428;-70
2022/03/31 20:08:28;;;;;;;23.63;16.47;;;0.80;96.30;;;;;;4995363;28;20432;-69
2022/03/31 20:10:54;;;;;;;17.97;15.60;;;0.70;96.30;;;;;;4995426;28;20928;-70
2022/03/31 20:13:22;;;;;;;17.70;13.63;;;0.70;96.30;;;;;;4994995;28;20239;-70
2022/03/31 20:15:48;;;;;;;18.37;15.53;;;0.70;96.30;;;;;;4995311;28;20500;-69
2022/03/31 20:18:14;;;;;;;20.43;16.37;;;0.70;96.30;;;;;;4994864;28;20579;-70
2022/03/31 20:20:41;;;;;;;20.27;16.67;;;0.70;96.30;;;;;;4995376;28;20166;-71
2022/03/31 20:23:06;;;;;;;21.60;18.33;;;0.70;96.30;;;;;;4994886;28;20401;-70
2022/03/31 20:25:32;;;;;;;16.63;14.00;;;0.70;96.30;;;;;;4995197;28;20893;-71
2022/03/31 20:27:58;;;;;;;23.90;18.00;;;0.70;96.30;;;;;;4994887;28;20198;-69
2022/03/31 20:30:23;;;;;;;18.80;14.93;;;0.70;96.30;;;;;;4993860;28;20181;-67
2022/03/31 20:32:49;;;;;;;21.27;16.87;;;0.70;96.30;;;;;;4994410;28;20170;-69
2022/03/31 20:35:15;;;;;;;21.60;15.33;;;0.70;96.30;;;;;;4992950;28;20576;-72
2022/03/31 20:37:40;;;;;;;22.77;18.50;;;0.70;96.30;;;;;;4993224;28;20708;-71
2022/03/31 20:40:07;;;;;;;20.47;16.30;;;0.70;96.30;;;;;;4993552;28;20264;-69
2022/03/31 20:42:33;;;;;;;17.83;15.80;;;0.70;96.30;;;;;;4994874;28;20197;-69
2022/03/31 20:44:58;;;;;;;20.80;16.80;;;0.70;96.30;;;;;;4995210;28;20408;-71
2022/03/31 20:47:24;;;;;;;20.00;15.00;;;0.80;96.30;;;;;;4994563;28;20185;-70
2022/03/31 20:49:50;;;;;;;24.23;18.07;;;0.80;96.30;;;;;;4994555;28;20282;-70
2022/03/31 20:52:16;;;;;;;24.77;18.07;;;0.80;96.30;;;;;;4994458;28;20178;-70
2022/03/31 20:54:43;;;;;;;21.07;16.67;;;0.80;96.30;;;;;;4993428;28;20182;-69
2022/03/31 20:57:08;;;;;;;20.50;16.40;;;0.70;96.30;;;;;;4994533;28;20762;-69
2022/03/31 20:59:36;;;;;;;23.03;16.33;;;0.70;96.30;;;;;;4994177;28;20467;-70
2022/03/31 21:02:04;;;;;;;19.33;16.93;;;0.70;96.30;;;;;;4993342;28;20185;-69
2022/03/31 21:04:29;;;;;;;15.27;11.60;;;0.80;96.30;;;;;;4993040;28;20436;-69
2022/03/31 21:06:55;;;;;;;19.07;16.63;;;0.70;96.30;;;;;;4993066;28;20433;-70
2022/03/31 21:09:20;;;;;;;19.40;14.20;;;0.70;96.30;;;;;;4993895;28;20237;-69
2022/03/31 21:11:46;;;;;;;17.43;14.77;;;0.80;96.30;;;;;;4994257;28;20182;-69
2022/03/31 21:14:12;;;;;;;19.93;16.43;;;0.80;96.30;;;;;;4994506;28;20177;-69
2022/03/31 21:16:37;;;;;;;19.37;17.00;;;0.80;96.30;;;;;;4994326;28;20673;-69
2022/03/31 21:19:03;;;;;;;14.03;10.77;;;0.80;96.30;;;;;;4993977;28;20215;-69
2022/03/31 21:21:29;;;;;;;25.70;17.30;;;0.80;96.30;;;;;;4994421;28;20573;-69
2022/03/31 21:23:54;;;;;;;22.20;17.30;;;0.80;96.30;;;;;;4993822;28;20261;-70
2022/03/31 21:26:20;;;;;;;19.83;14.50;;;0.80;96.30;;;;;;4994120;28;20184;-69
2022/03/31 21:28:46;;;;;;;20.37;16.07;;;0.80;96.30;;;;;;4993784;28;20202;-69
2022/03/31 21:31:11;;;;;;;16.90;14.50;;;0.80;96.30;;;;;;4993810;28;20545;-69
2022/03/31 21:33:37;;;;;;;18.43;16.37;;;0.90;96.30;;;;;;4993907;28;20797;-69
2022/03/31 21:36:03;;;;;;;22.30;17.60;;;0.80;96.30;;;;;;4993824;28;20653;-69
2022/03/31 21:38:29;;;;;;;22.77;17.17;;;0.80;96.30;;;;;;4993432;28;20284;-69
2022/03/31 21:40:54;;;;;;;18.53;15.57;;;0.80;96.30;;;;;;4993721;28;20508;-69
2022/03/31 21:43:20;;;;;;;22.30;15.90;;;0.80;96.30;;;;;;4993741;28;20634;-69
2022/03/31 21:45:46;;;;;;;19.00;15.67;;;0.80;96.30;;;;;;4993554;28;20177;-69
2022/03/31 21:48:12;;;;;;;18.80;14.87;;;0.80;96.30;;;;;;4993249;28;20244;-69
2022/03/31 21:50:38;;;;;;;22.07;17.63;;;0.80;96.30;;;;;;4993679;28;20172;-69
2022/03/31 21:53:04;;;;;;;18.37;16.17;;;0.80;96.30;;;;;;4993481;28;20180;-69
2022/03/31 21:55:30;;;;;;;18.90;15.27;;;0.80;96.30;;;;;;4993589;28;20890;-70
2022/03/31 21:57:56;;;;;;;18.93;15.57;;;0.90;96.30;;;;;;4993278;28;20513;-70
2022/03/31 22:00:39;;;;;;;20.37;15.23;;;0.90;96.30;;;;;;4993397;28;20217;-70
2022/03/31 22:03:11;;;;;;;18.20;14.83;;;0.90;96.30;;;;;;4993159;28;20205;-69
2022/03/31 22:05:56;;;;;;;16.97;14.87;;;0.90;96.30;;;;;;4993342;28;20470;-69
2022/03/31 22:13:55;;;;;;;15.47;12.73;;;0.90;96.30;;;;;;4993030;28;20411;-70
2022/03/31 22:16:20;;;;;;;15.47;13.87;;;0.90;96.30;;;;;;4993098;28;20409;-69
2022/03/31 22:18:48;;;;;;;15.03;13.23;;;0.90;96.30;;;;;;4992816;28;20463;-70
2022/03/31 22:21:14;;;;;;;16.80;15.13;;;0.90;96.30;;;;;;4992847;28;20181;-69
2022/03/31 22:23:41;;;;;;;22.23;14.77;;;0.90;96.30;;;;;;4993227;28;20431;-69
2022/03/31 22:26:07;;;;;;;19.73;15.63;;;0.90;96.30;;;;;;4992940;28;20451;-70
2022/03/31 22:28:32;;;;;;;20.30;15.80;;;0.90;96.30;;;;;;4992665;28;20460;-69
2022/03/31 22:30:58;;;;;;;21.93;16.57;;;0.90;96.30;;;;;;4992957;28;20666;-69
2022/03/31 22:33:23;;;;;;;18.80;15.70;;;0.90;96.30;;;;;;4991782;28;20181;-68
2022/03/31 22:35:49;;;;;;;16.77;14.10;;;0.90;96.30;;;;;;4991471;28;20193;-69
2022/03/31 22:38:14;;;;;;;17.80;15.90;;;0.90;96.30;;;;;;4992659;28;20209;-69
2022/03/31 22:40:39;;;;;;;19.70;15.10;;;0.90;96.30;;;;;;4992776;28;20177;-69
2022/03/31 22:43:05;;;;;;;16.87;15.03;;;0.80;96.30;;;;;;4992790;28;20177;-69
2022/03/31 22:45:31;;;;;;;14.77;13.10;;;0.80;96.30;;;;;;4992751;28;20169;-69
2022/03/31 22:47:56;;;;;;;15.00;13.50;;;0.80;96.30;;;;;;4991097;28;20224;-69
2022/03/31 22:50:22;;;;;;;16.30;13.30;;;0.80;96.30;;;;;;4991360;28;20197;-69
2022/03/31 22:52:48;;;;;;;14.53;11.90;;;0.80;96.30;;;;;;4992586;28;20173;-69
2022/03/31 22:55:14;;;;;;;13.63;11.93;;;0.90;96.30;;;;;;4992673;28;20400;-70
2022/03/31 22:57:39;;;;;;;12.70;9.63;;;0.90;96.30;;;;;;4992356;28;20220;-69
2022/03/31 23:00:05;;;;;;;15.10;12.43;;;0.80;96.30;;;;;;4992363;28;20243;-70
2022/03/31 23:02:31;;;;;;;16.87;12.77;;;0.80;96.30;;;;;;4992337;28;20668;-69
2022/03/31 23:04:57;;;;;;;21.83;13.87;;;0.80;96.30;;;;;;4992601;28;20417;-69
2022/03/31 23:07:25;;;;;;;18.57;14.90;;;0.80;96.30;;;;;;4991436;28;20637;-69
2022/03/31 23:09:50;;;;;;;14.93;9.40;;;0.80;96.30;;;;;;4991118;28;20555;-69
2022/03/31 23:12:16;;;;;;;16.70;11.87;;;0.70;96.30;;;;;;4992371;28;20428;-70
2022/03/31 23:14:41;;;;;;;16.80;13.80;;;0.70;96.30;;;;;;4992379;28;20186;-69
2022/03/31 23:17:07;;;;;;;10.67;9.20;;;0.70;96.30;;;;;;4992428;28;20185;-69
2022/03/31 23:19:33;;;;;;;16.97;14.07;;;0.70;96.30;;;;;;4991916;28;20618;-70
2022/03/31 23:21:58;;;;;;;15.60;13.27;;;0.70;96.30;;;;;;4992309;28;20173;-70
2022/03/31 23:24:24;;;;;;;15.50;12.43;;;0.70;96.30;;;;;;4992401;28;20180;-69
2022/03/31 23:26:49;;;;;;;11.00;9.20;;;0.70;96.30;;;;;;4995605;28;20587;-70
2022/03/31 23:29:14;;;;;;;14.30;10.50;;;0.70;96.30;;;;;;4995774;28;20201;-70
2022/03/31 23:31:40;;;;;;;15.57;13.30;;;0.60;96.30;;;;;;4996187;28;20193;-70
2022/03/31 23:34:05;;;;;;;16.20;12.37;;;0.60;96.30;;;;;;4995998;28;20189;-69
2022/03/31 23:36:31;;;;;;;14.43;11.50;;;0.60;96.30;;;;;;4996070;28;20186;-70
2022/03/31 23:38:57;;;;;;;15.77;11.83;;;0.50;96.30;;;;;;4994342;28;20221;-70
2022/03/31 23:41:22;;;;;;;16.13;13.50;;;0.60;96.30;;;;;;4995745;28;20257;-70
2022/03/31 23:43:48;;;;;;;14.10;10.87;;;0.60;96.30;;;;;;4976424;28;20261;-70
2022/03/31 23:46:14;;;;;;;9.43;7.50;;;0.50;96.30;;;;;;4976636;28;20185;-70
2022/03/31 23:48:39;;;;;;;11.83;9.20;;;0.50;96.30;;;;;;4976108;28;20190;-70
2022/03/31 23:51:05;;;;;;;12.73;10.53;;;0.50;96.30;;;;;;4975099;28;20987;-69
2022/03/31 23:53:31;;;;;;;13.63;9.87;;;0.50;96.30;;;;;;4976414;28;20179;-70
2022/03/31 23:55:56;;;;;;;15.50;12.27;;;0.50;96.30;;;;;;4981029;28;20189;-69
2022/03/31 23:58:22;;;;;;;15.00;10.97;;;0.50;96.30;;;;;;4994018;28;20198;-70
